Duncanville, Texas
Current Conditions -  °F | °C
As of 2:53 AM on Friday 28 Nov 2014 (Local Time) from KRBD Reporting Station
Clear Clear  
Wind Chill:   Ceiling: Unl
Heat Index:   Visibility: 10mi
Dew Point: -2°   Wind: 7mph
Humidity: 44%   Direction: NA
Pressure: 30.3"   Gusts: NA
Location:  32.65°N, 96.91°W
Report Text: KRBD 280853Z VRB06KT 10SM CLR 09/M02 A3030 RMK AO2 SLP257 T00941022 56017
Loading
Personal Weather Stations






























Interactive Weather Map New forecast layout! Learn more

10-Day Weather Forecast

Advertisements
Track Severe Weather on mobile